Time;durP1;ratioP1;P1;durP2;ratioP2;P2;SDS_P1;SDS_P2;PMS_P1;PMS_P2;Temp;Humidity;BMP_temperature;BMP_pressure;BME280_temperature;BME280_humidity;BME280_pressure;Samples;Min_cycle;Max_cycle;Signal;HPM_P1;HPM_P2
2021/08/21 00:01:10;;;;;;;1.88;1.08;;;;;;;35.27;24.89;98390.63;5065026;28;20029;-82
2021/08/21 00:03:37;;;;;;;1.15;0.90;;;;;;;35.17;24.69;98377.78;5065962;28;20079;-82
2021/08/21 00:06:03;;;;;;;1.45;1.35;;;;;;;34.69;25.61;98386.06;5063094;28;20480;-81
2021/08/21 00:08:30;;;;;;;0.88;0.70;;;;;;;34.49;25.39;98383.19;5066597;28;20101;-81
2021/08/21 00:10:57;;;;;;;1.58;0.88;;;;;;;34.62;25.48;98379.97;5062331;28;20083;-81
2021/08/21 00:13:23;;;;;;;2.33;0.82;;;;;;;34.26;26.01;98383.38;5062473;28;20032;-81
2021/08/21 00:15:49;;;;;;;0.93;0.90;;;;;;;34.03;26.24;98385.88;5064259;28;20099;-81
2021/08/21 00:18:15;;;;;;;1.33;1.08;;;;;;;33.91;26.21;98374.78;5058302;28;20036;-81
2021/08/21 00:20:41;;;;;;;1.75;1.17;;;;;;;33.98;26.60;98377.25;5062402;28;20515;-82
2021/08/21 00:23:07;;;;;;;2.00;1.45;;;;;;;33.81;26.31;98376.19;5063040;28;20060;-81
2021/08/21 00:25:33;;;;;;;0.80;0.75;;;;;;;34.30;25.97;98379.03;5062012;28;20039;-81
2021/08/21 00:27:59;;;;;;;2.13;0.85;;;;;;;34.48;25.49;98380.81;5064140;28;20095;-81
2021/08/21 00:30:25;;;;;;;1.20;0.68;;;;;;;34.52;25.45;98387.91;5064744;28;20463;-81
2021/08/21 00:32:51;;;;;;;1.52;0.93;;;;;;;34.57;25.10;98387.19;5059368;28;20068;-82
2021/08/21 00:35:18;;;;;;;1.67;0.90;;;;;;;34.44;25.52;98388.81;5061138;28;20892;-81
2021/08/21 00:37:44;;;;;;;1.08;0.95;;;;;;;34.58;25.16;98387.97;5060667;28;20032;-81
2021/08/21 00:40:11;;;;;;;2.60;0.90;;;;;;;34.80;25.15;98379.69;5064535;28;20032;-82
2021/08/21 00:42:37;;;;;;;0.90;0.82;;;;;;;34.97;24.88;98385.59;5066533;28;20431;-82
2021/08/21 00:45:05;;;;;;;1.67;1.35;;;;;;;34.52;25.37;98384.22;5066386;28;20032;-82
2021/08/21 00:47:31;;;;;;;1.30;1.00;;;;;;;34.58;25.15;98390.84;5063425;28;20519;-82
2021/08/21 00:49:57;;;;;;;0.88;0.70;;;;;;;34.78;24.86;98384.31;5061689;28;20029;-81
2021/08/21 00:52:29;;;;;;;1.30;1.00;;;;;;;34.85;25.02;98392.44;5066647;28;20112;-81
2021/08/21 00:54:56;;;;;;;1.67;1.08;;;;;;;34.98;24.55;98387.16;5063940;28;20024;-81
2021/08/21 00:57:23;;;;;;;2.00;1.23;;;;;;;35.12;24.49;98380.59;5062597;28;20029;-81
2021/08/21 00:59:52;;;;;;;1.08;0.68;;;;;;;35.19;24.47;98385.88;5066180;28;20055;-81
2021/08/21 01:02:19;;;;;;;1.25;0.80;;;;;;;34.87;24.64;98378.47;5059862;28;20029;-81
2021/08/21 01:04:48;;;;;;;1.63;0.93;;;;;;;34.55;25.32;98381.19;5062811;28;20036;-81
2021/08/21 01:07:16;;;;;;;1.15;0.70;;;;;;;34.29;25.55;98383.16;5061560;28;20033;-82
2021/08/21 01:09:43;;;;;;;0.80;0.70;;;;;;;34.26;25.49;98377.66;5067206;28;20450;-81
2021/08/21 01:12:12;;;;;;;0.85;0.77;;;;;;;34.28;25.74;98381.59;5060144;28;20029;-81
2021/08/21 01:14:40;;;;;;;0.85;0.85;;;;;;;34.32;26.03;98387.88;5065095;28;20392;-81
2021/08/21 01:17:06;;;;;;;1.17;1.02;;;;;;;34.35;25.56;98391.78;5065444;28;20102;-81
2021/08/21 01:19:37;;;;;;;3.13;1.00;;;;;;;34.61;25.19;98390.59;5069596;28;20484;-81
2021/08/21 01:22:07;;;;;;;2.25;1.00;;;;;;;34.84;24.96;98382.31;5067735;28;20036;-81
2021/08/21 01:24:35;;;;;;;1.60;1.10;;;;;;;34.86;25.23;98376.91;5070132;28;20102;-81
2021/08/21 01:27:02;;;;;;;1.73;1.40;;;;;;;34.62;25.54;98380.78;5066377;28;20129;-81
2021/08/21 01:29:28;;;;;;;1.42;1.00;;;;;;;34.41;25.79;98379.16;5069891;28;20029;-81
2021/08/21 01:31:54;;;;;;;1.58;0.70;;;;;;;34.29;25.92;98374.59;5067020;28;20036;-81
2021/08/21 01:34:20;;;;;;;0.80;0.60;;;;;;;34.27;25.99;98377.16;5049847;28;20070;-81
2021/08/21 01:36:49;;;;;;;1.20;0.80;;;;;;;34.37;25.59;98378.59;5063703;28;20098;-81
2021/08/21 01:39:16;;;;;;;1.35;0.82;;;;;;;34.68;24.88;98378.00;5070457;28;20169;-81
2021/08/21 01:41:43;;;;;;;0.77;0.70;;;;;;;34.81;25.16;98375.56;5066160;28;21540;-81
2021/08/21 01:44:14;;;;;;;1.00;0.85;;;;;;;34.71;24.60;98374.91;5062927;28;20400;-81
2021/08/21 01:46:41;;;;;;;1.35;0.90;;;;;;;34.89;24.94;98373.84;5060889;28;20033;-81
2021/08/21 01:49:11;;;;;;;0.82;0.63;;;;;;;34.87;25.04;98367.81;5069390;28;20484;-81
2021/08/21 01:51:40;;;;;;;1.20;0.93;;;;;;;34.82;24.76;98368.56;5066124;28;20036;-81
2021/08/21 01:54:06;;;;;;;1.17;1.00;;;;;;;34.85;24.86;98369.63;5070625;28;20286;-81
2021/08/21 01:56:45;;;;;;;0.70;0.68;;;;;;;34.95;24.55;98368.97;5062811;28;20024;-81
2021/08/21 01:59:22;;;;;;;1.38;1.20;;;;;;;35.12;24.18;98372.81;5058711;28;20021;-81
2021/08/21 02:01:49;;;;;;;1.55;0.90;;;;;;;35.23;24.38;98372.94;5058401;28;20439;-80
2021/08/21 02:04:15;;;;;;;1.38;1.08;;;;;;;35.21;24.36;98371.88;5055708;28;20029;-81
2021/08/21 02:06:42;;;;;;;0.82;0.70;;;;;;;35.23;23.95;98369.28;5063915;28;20061;-81
2021/08/21 02:09:12;;;;;;;0.88;0.82;;;;;;;35.26;24.59;98366.22;5056538;28;20044;-81
2021/08/21 02:11:38;;;;;;;0.80;0.80;;;;;;;35.25;24.14;98370.34;5063636;28;20066;-81
2021/08/21 02:14:05;;;;;;;1.42;0.85;;;;;;;35.01;24.39;98369.03;5064218;28;20025;-82
2021/08/21 02:16:31;;;;;;;0.80;0.80;;;;;;;34.53;24.68;98375.22;5063325;28;20087;-81
2021/08/21 02:18:58;;;;;;;0.82;0.68;;;;;;;34.08;25.67;98370.94;5064369;28;20044;-81
2021/08/21 02:21:24;;;;;;;1.15;0.90;;;;;;;34.02;24.99;98369.25;5066326;28;20025;-81
2021/08/21 02:23:52;;;;;;;2.55;0.75;;;;;;;34.26;24.64;98377.66;5062200;28;20110;-82
2021/08/21 02:26:18;;;;;;;1.20;0.80;;;;;;;34.25;24.99;98378.94;5060565;28;20389;-82
2021/08/21 02:28:44;;;;;;;1.08;0.98;;;;;;;34.36;24.63;98376.22;5060221;28;20041;-82
2021/08/21 02:31:10;;;;;;;0.77;0.77;;;;;;;34.44;24.43;98383.88;5062473;28;20032;-82
2021/08/21 02:33:36;;;;;;;3.63;1.27;;;;;;;34.50;24.75;98386.78;5062016;28;20045;-82
2021/08/21 02:36:03;;;;;;;1.55;1.17;;;;;;;34.06;25.28;98376.34;5060067;28;20481;-81
2021/08/21 02:38:29;;;;;;;1.17;1.08;;;;;;;33.71;25.76;98384.06;5069545;28;20110;-82
2021/08/21 02:40:55;;;;;;;0.80;0.77;;;;;;;33.77;25.35;98387.00;5064012;28;20072;-82
2021/08/21 02:43:22;;;;;;;1.58;0.85;;;;;;;33.93;25.09;98386.47;5061894;28;20037;-81
2021/08/21 02:45:49;;;;;;;2.30;0.77;;;;;;;33.96;24.88;98382.63;5062479;28;20501;-81
2021/08/21 02:48:15;;;;;;;0.82;0.65;;;;;;;33.99;24.78;98387.34;5067473;28;20397;-81
2021/08/21 02:50:41;;;;;;;1.58;0.95;;;;;;;34.01;24.04;98385.56;5071032;28;20115;-81
2021/08/21 02:53:07;;;;;;;1.90;0.88;;;;;;;34.03;24.89;98379.38;5068703;28;20024;-81
2021/08/21 02:55:34;;;;;;;0.70;0.70;;;;;;;33.86;25.20;98390.53;5059843;28;20052;-80
2021/08/21 02:58:00;;;;;;;0.77;0.60;;;;;;;33.77;25.20;98392.69;5068444;28;20067;-81
2021/08/21 03:00:26;;;;;;;0.70;0.70;;;;;;;33.57;25.11;98386.91;5064681;28;20468;-81
2021/08/21 03:02:52;;;;;;;0.68;0.63;;;;;;;33.62;24.34;98386.22;5056219;28;20037;-81
2021/08/21 03:05:18;;;;;;;0.70;0.68;;;;;;;33.75;24.68;98381.03;5059745;28;20182;-81
2021/08/21 03:07:44;;;;;;;1.10;0.88;;;;;;;33.78;24.48;98380.81;5055925;28;20036;-82
2021/08/21 03:10:10;;;;;;;0.90;0.63;;;;;;;33.62;24.78;98384.16;5058757;28;20024;-82
2021/08/21 03:12:37;;;;;;;1.67;1.20;;;;;;;33.21;25.25;98386.00;5058998;28;20029;-81
2021/08/21 03:15:04;;;;;;;1.73;1.02;;;;;;;32.98;25.56;98386.06;5060600;28;20028;-82
2021/08/21 03:17:31;;;;;;;0.85;0.70;;;;;;;32.91;25.91;98394.97;5068310;28;20484;-82
2021/08/21 03:19:57;;;;;;;1.23;0.80;;;;;;;33.00;25.05;98383.50;5062696;28;20060;-82
2021/08/21 03:22:23;;;;;;;1.77;0.77;;;;;;;32.97;24.96;98393.00;5068222;28;20025;-82
2021/08/21 03:24:49;;;;;;;0.80;0.80;;;;;;;33.10;25.11;98388.63;5057839;28;20036;-82
2021/08/21 03:27:15;;;;;;;2.40;0.85;;;;;;;33.05;25.27;98397.09;5061988;28;20036;-81
2021/08/21 03:29:41;;;;;;;0.82;0.80;;;;;;;33.16;25.07;98398.09;5063298;28;20500;-81
2021/08/21 03:32:08;;;;;;;0.80;0.70;;;;;;;33.33;24.33;98390.63;5058902;28;20071;-82
2021/08/21 03:34:34;;;;;;;1.58;0.70;;;;;;;33.47;24.29;98402.53;5069122;28;20477;-82
2021/08/21 03:37:00;;;;;;;1.40;1.20;;;;;;;33.24;24.53;98396.41;5062237;28;20364;-82
2021/08/21 03:39:26;;;;;;;1.38;0.90;;;;;;;32.97;25.08;98393.00;5067202;28;20037;-81
2021/08/21 03:41:52;;;;;;;1.10;1.00;;;;;;;32.77;25.55;98401.41;5067049;28;20095;-80
2021/08/21 03:44:18;;;;;;;1.33;0.90;;;;;;;32.84;25.30;98395.34;5066451;28;20036;-82
2021/08/21 03:46:44;;;;;;;3.42;1.20;;;;;;;32.82;25.25;98398.66;5064321;28;20052;-81
2021/08/21 03:49:10;;;;;;;2.85;0.70;;;;;;;32.83;25.10;98402.28;5059976;28;20032;-80
2021/08/21 03:51:36;;;;;;;1.17;0.80;;;;;;;32.97;25.13;98405.19;5066376;28;20089;-80
2021/08/21 03:54:02;;;;;;;1.83;1.00;;;;;;;33.11;24.70;98401.59;5069388;28;20037;-81
2021/08/21 03:56:28;;;;;;;0.95;0.85;;;;;;;33.34;24.12;98403.59;5068501;28;20033;-82
2021/08/21 03:58:54;;;;;;;1.00;0.60;;;;;;;33.39;24.14;98411.44;5062612;28;20025;-82
2021/08/21 04:01:20;;;;;;;1.50;0.82;;;;;;;33.24;24.78;98412.69;5067045;28;20040;-82
2021/08/21 04:03:47;;;;;;;1.27;0.88;;;;;;;33.29;24.51;98414.88;5061719;28;20182;-82
2021/08/21 04:06:13;;;;;;;0.60;0.60;;;;;;;33.60;24.29;98418.06;5069168;28;20020;-82
2021/08/21 04:08:39;;;;;;;0.90;0.70;;;;;;;33.85;23.99;98423.13;5060864;28;20040;-81
2021/08/21 04:11:05;;;;;;;1.08;0.60;;;;;;;34.07;23.45;98422.75;5054688;28;20583;-81
2021/08/21 04:13:31;;;;;;;0.75;0.75;;;;;;;34.25;23.63;98422.50;5065485;28;20058;-81
2021/08/21 04:15:57;;;;;;;1.33;0.70;;;;;;;34.32;23.81;98427.00;5062085;28;20036;-81
2021/08/21 04:18:23;;;;;;;0.80;0.60;;;;;;;34.46;23.37;98437.56;5058963;28;20033;-82
2021/08/21 04:20:49;;;;;;;1.00;0.80;;;;;;;34.58;23.18;98430.75;5068785;28;20115;-80
2021/08/21 04:23:15;;;;;;;1.30;0.77;;;;;;;34.66;23.48;98432.69;5063021;28;20028;-81
2021/08/21 04:25:41;;;;;;;1.10;0.70;;;;;;;34.86;23.16;98437.63;5063889;28;20039;-81
2021/08/21 04:28:07;;;;;;;0.70;0.63;;;;;;;34.87;23.16;98446.97;5060996;28;20032;-81
2021/08/21 04:30:33;;;;;;;1.48;0.85;;;;;;;35.03;23.00;98447.19;5062559;28;20064;-82
2021/08/21 04:32:59;;;;;;;1.35;0.73;;;;;;;35.03;23.50;98446.41;5054652;28;20078;-82
2021/08/21 04:35:25;;;;;;;0.93;0.60;;;;;;;35.21;23.36;98446.88;5061916;28;20523;-81
2021/08/21 04:37:52;;;;;;;0.80;0.68;;;;;;;35.25;23.13;98444.59;5062361;28;20060;-81
2021/08/21 04:40:20;;;;;;;0.70;0.70;;;;;;;34.77;23.57;98451.25;5068427;28;20055;-81
2021/08/21 04:42:46;;;;;;;2.97;0.77;;;;;;;34.37;24.35;98451.94;5058602;28;20028;-82
2021/08/21 04:45:13;;;;;;;0.60;0.60;;;;;;;34.40;24.08;98450.97;5057982;28;20395;-82
2021/08/21 04:47:39;;;;;;;0.90;0.88;;;;;;;34.61;24.11;98456.22;5066155;28;20488;-82
2021/08/21 04:50:06;;;;;;;2.67;0.93;;;;;;;34.82;24.09;98459.09;5058252;28;20037;-82
2021/08/21 04:52:32;;;;;;;3.67;1.52;;;;;;;34.17;24.72;98466.16;5064141;28;20060;-81
2021/08/21 04:54:59;;;;;;;1.05;0.95;;;;;;;33.75;25.44;98460.78;5068240;28;20043;-81
2021/08/21 04:57:25;;;;;;;0.90;0.80;;;;;;;33.66;25.50;98461.66;5066295;28;21650;-81
2021/08/21 04:59:51;;;;;;;2.00;0.90;;;;;;;33.75;25.89;98463.63;5064913;28;20040;-81
2021/08/21 05:02:17;;;;;;;1.20;0.95;;;;;;;33.77;25.68;98469.63;5064738;28;20028;-82
2021/08/21 05:04:43;;;;;;;0.80;0.77;;;;;;;33.84;26.08;98466.38;5071522;28;20037;-81
2021/08/21 05:07:09;;;;;;;1.33;1.00;;;;;;;33.79;25.93;98461.34;5065713;28;20103;-81
2021/08/21 05:09:35;;;;;;;1.77;0.80;;;;;;;33.87;25.72;98469.00;5062895;28;20037;-82
2021/08/21 05:12:01;;;;;;;1.08;0.90;;;;;;;34.00;25.81;98468.72;5070006;28;20028;-81
2021/08/21 05:14:27;;;;;;;1.23;0.73;;;;;;;34.12;25.85;98469.72;5067533;28;20045;-81
2021/08/21 05:16:53;;;;;;;0.80;0.75;;;;;;;34.51;25.19;98482.50;5064359;28;20029;-81
2021/08/21 05:19:30;;;;;;;0.82;0.82;;;;;;;34.64;25.25;98478.03;5074974;28;20036;-81
2021/08/21 05:21:58;;;;;;;4.13;1.08;;;;;;;34.23;26.24;98487.78;5067992;28;20381;-81
2021/08/21 05:24:24;;;;;;;1.40;1.15;;;;;;;33.92;26.35;98490.31;5059355;28;20074;-81
2021/08/21 05:26:50;;;;;;;1.15;0.80;;;;;;;33.86;26.37;98486.59;5066054;28;20040;-82
2021/08/21 05:29:17;;;;;;;1.73;1.00;;;;;;;33.90;26.45;98492.88;5065998;28;20500;-81
2021/08/21 05:31:44;;;;;;;1.48;1.33;;;;;;;33.78;26.68;98493.97;5071567;28;20051;-82
2021/08/21 05:34:14;;;;;;;1.55;1.42;;;;;;;33.68;27.00;98496.13;5070381;28;20455;-82
2021/08/21 05:36:40;;;;;;;1.80;1.42;;;;;;;33.70;26.97;98498.50;5071203;28;20488;-82
2021/08/21 05:39:08;;;;;;;1.77;1.35;;;;;;;33.81;27.17;98490.13;5071393;28;20515;-82
2021/08/21 05:41:34;;;;;;;2.38;1.60;;;;;;;33.75;27.54;98501.44;5073319;28;20138;-81
2021/08/21 05:44:00;;;;;;;1.20;1.10;;;;;;;33.84;27.52;98509.09;5066313;28;20024;-81
2021/08/21 05:46:26;;;;;;;1.15;1.05;;;;;;;34.29;26.84;98510.66;5061390;28;20437;-82
2021/08/21 05:48:52;;;;;;;1.00;0.90;;;;;;;34.65;26.15;98508.16;5068814;28;20564;-81
2021/08/21 05:51:18;;;;;;;1.30;1.20;;;;;;;35.04;25.86;98510.75;5062781;28;20124;-81
2021/08/21 05:53:44;;;;;;;1.50;1.02;;;;;;;35.16;25.85;98515.34;5055725;28;20053;-81
2021/08/21 05:56:10;;;;;;;2.60;1.25;;;;;;;35.47;25.44;98506.88;5067333;28;20024;-82
2021/08/21 05:58:36;;;;;;;1.25;1.05;;;;;;;35.77;25.65;98518.91;5063472;28;20033;-81
2021/08/21 06:01:03;;;;;;;1.15;0.90;;;;;;;36.02;24.89;98516.06;5063238;28;20037;-81
2021/08/21 06:03:29;;;;;;;1.35;1.05;;;;;;;36.24;25.01;98521.22;5062549;28;20037;-82
2021/08/21 06:05:55;;;;;;;0.80;0.73;;;;;;;36.42;24.52;98520.03;5067231;28;20071;-82
2021/08/21 06:08:22;;;;;;;1.15;1.00;;;;;;;36.50;24.62;98518.31;5059683;28;20036;-82
2021/08/21 06:10:48;;;;;;;1.58;0.95;;;;;;;36.65;23.83;98521.78;5069501;28;20033;-82
2021/08/21 06:13:14;;;;;;;1.10;1.00;;;;;;;36.42;24.49;98525.75;5078671;28;20536;-82
2021/08/21 06:15:40;;;;;;;1.13;0.90;;;;;;;36.08;24.98;98525.47;5071400;28;20048;-82
2021/08/21 06:18:06;;;;;;;1.20;1.05;;;;;;;36.34;24.95;98522.56;5065305;28;20032;-82
2021/08/21 06:20:32;;;;;;;1.42;1.05;;;;;;;36.34;24.32;98521.81;5066347;28;20037;-82
2021/08/21 06:22:58;;;;;;;2.78;1.40;;;;;;;36.22;24.51;98525.88;5062057;28;20580;-82
2021/08/21 06:25:24;;;;;;;1.80;1.38;;;;;;;35.84;24.49;98530.69;5062174;28;20507;-82
2021/08/21 06:27:51;;;;;;;2.70;1.20;;;;;;;35.99;25.37;98530.56;5074143;28;20032;-82
2021/08/21 06:30:17;;;;;;;2.05;1.27;;;;;;;36.03;24.36;98523.38;5070255;28;20031;-82
2021/08/21 06:32:44;;;;;;;1.70;1.20;;;;;;;36.16;24.66;98527.88;5061122;28;20033;-83
2021/08/21 06:35:10;;;;;;;1.55;1.00;;;;;;;36.36;24.67;98522.06;5073050;28;20078;-82
2021/08/21 06:37:36;;;;;;;1.75;1.25;;;;;;;36.28;24.74;98516.03;5061820;28;20036;-82
2021/08/21 06:40:03;;;;;;;1.75;1.13;;;;;;;36.38;24.54;98517.41;5060690;28;20036;-83
2021/08/21 06:42:30;;;;;;;1.95;1.27;;;;;;;36.22;24.48;98523.78;5065040;28;20111;-83
2021/08/21 06:44:56;;;;;;;1.90;1.17;;;;;;;35.90;25.14;98528.66;5070502;28;20036;-87
2021/08/21 06:47:22;;;;;;;1.60;1.20;;;;;;;36.10;25.64;98524.97;5064867;28;20500;-86
2021/08/21 06:49:48;;;;;;;1.27;1.17;;;;;;;36.60;25.60;98529.03;5066774;28;20029;-85
2021/08/21 06:52:14;;;;;;;2.60;1.42;;;;;;;36.64;24.38;98526.72;5062638;28;20036;-85
2021/08/21 06:54:40;;;;;;;2.38;1.50;;;;;;;36.83;25.04;98532.06;5060562;28;20033;-85
2021/08/21 06:57:06;;;;;;;2.83;1.30;;;;;;;36.90;24.10;98525.84;5062011;28;20054;-83
2021/08/21 06:59:32;;;;;;;1.33;1.23;;;;;;;36.92;23.79;98517.56;5060142;28;20089;-84
2021/08/21 07:02:00;;;;;;;1.55;1.42;;;;;;;36.48;24.73;98532.34;5060154;28;20048;-84
2021/08/21 07:04:26;;;;;;;1.75;1.30;;;;;;;36.03;24.79;98522.56;5061263;28;20043;-85
2021/08/21 07:06:52;;;;;;;1.23;1.10;;;;;;;34.94;25.66;98535.00;5061611;28;20041;-85
2021/08/21 07:09:18;;;;;;;2.67;1.35;;;;;;;33.93;27.62;98537.50;5060537;28;20029;-85
2021/08/21 07:11:44;;;;;;;2.65;1.80;;;;;;;33.66;28.21;98541.41;5065556;28;20032;-85
2021/08/21 07:14:10;;;;;;;3.25;2.30;;;;;;;33.75;27.77;98543.41;5061523;28;20054;-84
2021/08/21 07:16:36;;;;;;;2.70;1.80;;;;;;;34.40;26.96;98539.38;5061715;28;20036;-84
2021/08/21 07:19:05;;;;;;;2.17;1.98;;;;;;;34.52;26.42;98539.06;5063197;28;20024;-84
2021/08/21 07:21:32;;;;;;;3.22;1.95;;;;;;;35.17;26.23;98534.81;5064337;28;20079;-84
2021/08/21 07:23:58;;;;;;;2.25;1.35;;;;;;;35.35;25.39;98542.31;5061089;28;20675;-84
2021/08/21 07:26:24;;;;;;;2.22;1.70;;;;;;;35.76;24.88;98538.13;5062083;28;20116;-84
2021/08/21 07:28:50;;;;;;;2.65;1.63;;;;;;;36.18;24.71;98542.44;5062512;28;20039;-85
2021/08/21 07:31:17;;;;;;;2.40;1.88;;;;;;;36.18;24.61;98546.09;5059361;28;20131;-86
2021/08/21 07:33:43;;;;;;;4.60;1.88;;;;;;;36.69;24.15;98542.34;5060979;28;20554;-85
2021/08/21 07:36:09;;;;;;;1.58;1.35;;;;;;;36.80;23.77;98550.25;5058407;28;20476;-83
2021/08/21 07:38:36;;;;;;;2.63;2.00;;;;;;;36.08;24.70;98548.34;5060939;28;20037;-83
2021/08/21 07:41:02;;;;;;;5.05;2.35;;;;;;;36.38;24.60;98545.22;5061994;28;20434;-83
2021/08/21 07:43:28;;;;;;;1.90;1.70;;;;;;;36.05;24.88;98555.09;5058486;28;20959;-83
2021/08/21 07:45:54;;;;;;;1.73;1.60;;;;;;;35.86;24.67;98565.25;5066307;28;20467;-83
2021/08/21 07:48:20;;;;;;;2.42;2.15;;;;;;;35.93;24.73;98559.09;5053835;28;20110;-83
2021/08/21 07:50:47;;;;;;;2.45;2.00;;;;;;;35.91;24.92;98561.69;5063355;28;20082;-83
2021/08/21 07:53:13;;;;;;;2.95;1.88;;;;;;;35.80;24.90;98569.34;5057464;28;20021;-81
2021/08/21 07:55:39;;;;;;;2.33;2.08;;;;;;;35.84;25.00;98567.84;5053783;28;20514;-84
2021/08/21 07:58:05;;;;;;;4.03;2.05;;;;;;;36.05;24.17;98563.69;5069385;28;20431;-85
2021/08/21 08:00:32;;;;;;;1.63;1.50;;;;;;;36.70;24.31;98569.69;5063445;28;20066;-84
2021/08/21 08:02:58;;;;;;;2.13;1.50;;;;;;;37.32;23.67;98563.81;5063945;28;20034;-84
2021/08/21 08:05:25;;;;;;;1.52;1.42;;;;;;;37.52;22.81;98570.69;5059126;28;20059;-85
2021/08/21 08:07:51;;;;;;;1.85;1.30;;;;;;;37.60;22.93;98569.69;5062079;28;20500;-84
2021/08/21 08:10:17;;;;;;;1.95;1.65;;;;;;;37.48;22.30;98570.97;5060543;28;20036;-85
2021/08/21 08:12:44;;;;;;;2.15;1.20;;;;;;;37.19;22.51;98577.81;5063397;28;20115;-83
2021/08/21 08:15:11;;;;;;;1.35;1.17;;;;;;;37.47;21.41;98569.38;5068377;28;20078;-82
2021/08/21 08:17:37;;;;;;;1.10;1.00;;;;;;;37.53;21.93;98569.41;5057677;28;20033;-82
2021/08/21 08:20:06;;;;;;;1.08;0.98;;;;;;;37.56;21.73;98572.03;5060061;28;20032;-83
2021/08/21 08:22:33;;;;;;;0.80;0.80;;;;;;;37.59;21.18;98575.94;5064685;28;20032;-83
2021/08/21 08:24:59;;;;;;;2.08;0.90;;;;;;;37.26;20.98;98577.34;5063706;28;20108;-82
2021/08/21 08:27:25;;;;;;;0.90;0.80;;;;;;;37.17;20.62;98576.78;5061717;28;20028;-82
2021/08/21 08:29:51;;;;;;;1.33;0.95;;;;;;;37.55;20.92;98584.00;5064121;28;20037;-83
2021/08/21 08:32:17;;;;;;;2.45;1.10;;;;;;;37.19;20.37;98589.28;5055504;28;20029;-82
2021/08/21 08:34:43;;;;;;;1.00;0.93;;;;;;;37.37;21.23;98585.22;5056360;28;20033;-81
2021/08/21 08:37:12;;;;;;;1.35;0.88;;;;;;;36.89;20.32;98588.03;5064560;28;20036;-82
2021/08/21 08:39:40;;;;;;;1.20;0.63;;;;;;;36.67;20.68;98585.00;5060792;28;20094;-81
2021/08/21 08:42:08;;;;;;;1.30;1.00;;;;;;;36.92;20.94;98584.19;5058718;28;20033;-82
2021/08/21 08:44:35;;;;;;;0.80;0.80;;;;;;;37.16;20.97;98592.38;5061550;28;21559;-82
2021/08/21 08:47:02;;;;;;;1.08;0.82;;;;;;;37.59;20.48;98593.13;5066907;28;20029;-81
2021/08/21 08:49:29;;;;;;;0.93;0.82;;;;;;;37.85;20.45;98597.44;5054559;28;20033;-81
2021/08/21 08:51:55;;;;;;;0.90;0.90;;;;;;;37.85;21.09;98588.03;5056470;28;20043;-81
2021/08/21 08:54:22;;;;;;;0.73;0.70;;;;;;;37.73;20.92;98595.00;5059429;28;20025;-81
2021/08/21 08:56:48;;;;;;;1.17;0.90;;;;;;;37.54;21.12;98591.03;5064656;28;20033;-81
2021/08/21 08:59:14;;;;;;;1.00;0.68;;;;;;;37.60;21.38;98594.72;5060514;28;20090;-81
2021/08/21 09:01:41;;;;;;;1.55;1.10;;;;;;;37.58;21.05;98594.41;5055435;28;20067;-81
2021/08/21 09:04:23;;;;;;;0.88;0.80;;;;;;;37.44;22.00;98586.84;5063641;28;20032;-82
2021/08/21 09:06:50;;;;;;;0.70;0.70;;;;;;;37.61;21.78;98591.31;5068561;28;20040;-82
2021/08/21 09:09:17;;;;;;;0.68;0.68;;;;;;;37.16;21.52;98589.50;5064187;28;20063;-82
2021/08/21 09:11:46;;;;;;;1.80;0.90;;;;;;;37.63;20.13;98596.53;5060505;28;20120;-83
2021/08/21 09:14:31;;;;;;;0.98;0.63;;;;;;;37.80;20.86;98592.44;5063203;28;20024;-83
2021/08/21 09:17:19;;;;;;;0.80;0.57;;;;;;;38.11;20.16;98593.56;5059328;28;20517;-83
2021/08/21 09:19:48;;;;;;;0.93;0.80;;;;;;;38.25;21.69;98598.28;5056912;28;20025;-83
2021/08/21 09:22:14;;;;;;;1.35;0.93;;;;;;;38.29;22.25;98591.00;5060659;28;20079;-83
2021/08/21 09:24:41;;;;;;;1.75;1.17;;;;;;;37.56;21.98;98591.28;5062597;28;20033;-84
2021/08/21 09:27:16;;;;;;;0.95;0.93;;;;;;;37.16;22.17;98598.91;5060627;28;20444;-83
2021/08/21 09:29:42;;;;;;;1.35;1.00;;;;;;;37.56;23.05;98594.94;5060845;28;20105;-83
2021/08/21 09:32:09;;;;;;;1.27;1.00;;;;;;;37.91;22.03;98595.34;5061772;28;20079;-83
2021/08/21 09:34:36;;;;;;;1.10;0.80;;;;;;;37.56;21.80;98594.94;5086837;28;20036;-82
2021/08/21 09:37:02;;;;;;;1.50;1.20;;;;;;;37.68;23.15;98584.31;5069418;28;20035;-82
2021/08/21 09:39:42;;;;;;;1.67;0.95;;;;;;;37.49;23.12;98589.72;5083330;28;20389;-82
2021/08/21 09:42:09;;;;;;;2.10;1.20;;;;;;;37.49;21.43;98586.84;5056409;28;20123;-82
2021/08/21 09:44:42;;;;;;;2.03;0.98;;;;;;;37.78;22.36;98582.78;5064240;28;20039;-82
2021/08/21 09:47:25;;;;;;;1.60;0.90;;;;;;;37.15;21.12;98588.75;5058330;28;20044;-82
2021/08/21 09:49:53;;;;;;;1.08;0.93;;;;;;;37.29;22.13;98576.31;5059377;28;20028;-82
2021/08/21 09:52:20;;;;;;;1.10;1.00;;;;;;;36.25;23.60;98579.94;5072237;28;20040;-82
2021/08/21 09:55:04;;;;;;;1.10;1.00;;;;;;;36.82;22.49;98579.13;5056626;28;20025;-82
2021/08/21 09:57:31;;;;;;;1.70;1.00;;;;;;;37.64;21.92;98573.09;5057626;28;20029;-82
2021/08/21 10:00:00;;;;;;;0.77;0.68;;;;;;;37.54;21.28;98570.97;5055946;28;20029;-82
2021/08/21 10:02:30;;;;;;;1.05;0.90;;;;;;;37.51;21.51;98578.50;5062105;28;20388;-82
2021/08/21 10:04:58;;;;;;;0.77;0.77;;;;;;;36.85;22.24;98580.97;5072848;28;20029;-82
2021/08/21 10:07:32;;;;;;;1.15;1.05;;;;;;;36.36;23.20;98571.47;5067449;28;20515;-83
2021/08/21 10:10:01;;;;;;;1.58;1.38;;;;;;;36.72;21.55;98578.53;5064698;28;20028;-82
2021/08/21 10:12:28;;;;;;;0.90;0.90;;;;;;;36.53;22.32;98571.63;5061597;28;20056;-82
2021/08/21 10:14:54;;;;;;;1.10;1.00;;;;;;;36.23;22.68;98576.81;5066399;28;20119;-82
2021/08/21 10:17:21;;;;;;;2.88;1.50;;;;;;;36.51;21.19;98577.88;5063632;28;20041;-81
2021/08/21 10:19:48;;;;;;;1.20;1.10;;;;;;;35.88;22.69;98571.25;5066454;28;20384;-81
2021/08/21 10:22:16;;;;;;;1.20;1.10;;;;;;;35.67;22.98;98571.78;5059598;28;20100;-80
2021/08/21 10:24:46;;;;;;;1.33;1.23;;;;;;;34.93;22.29;98574.19;5073044;28;20094;-81
2021/08/21 10:27:37;;;;;;;1.10;0.98;;;;;;;35.55;22.61;98576.59;5062742;28;20036;-81
2021/08/21 10:30:20;;;;;;;1.10;1.00;;;;;;;36.31;20.90;98557.94;5055455;28;20028;-82
2021/08/21 10:32:58;;;;;;;1.75;1.33;;;;;;;36.22;20.61;98565.91;5063259;28;20045;-82
2021/08/21 10:35:43;;;;;;;1.17;1.00;;;;;;;36.49;20.47;98568.22;5062472;28;20025;-82
2021/08/21 10:38:39;;;;;;;1.17;1.08;;;;;;;36.47;21.29;98568.75;5058584;28;20045;-82
2021/08/21 10:41:11;;;;;;;1.67;1.27;;;;;;;36.06;21.80;98568.09;5060903;28;20024;-82
2021/08/21 10:43:49;;;;;;;1.30;1.20;;;;;;;35.81;21.02;98568.84;5056574;28;20408;-82
2021/08/21 10:46:31;;;;;;;0.90;0.80;;;;;;;36.65;21.46;98558.97;5064018;28;20519;-82
2021/08/21 10:49:04;;;;;;;1.35;1.20;;;;;;;37.05;20.13;98555.88;5070239;28;20500;-82
2021/08/21 10:51:42;;;;;;;2.65;1.30;;;;;;;37.34;20.44;98554.72;5064263;28;20036;-82
2021/08/21 10:54:25;;;;;;;1.33;1.13;;;;;;;37.12;21.20;98555.41;5058501;28;20033;-82
2021/08/21 10:56:53;;;;;;;1.20;1.10;;;;;;;37.06;21.29;98548.84;5067724;28;20035;-81
2021/08/21 10:59:38;;;;;;;1.17;1.05;;;;;;;37.38;20.96;98555.28;5059551;28;20404;-82
2021/08/21 11:02:28;;;;;;;1.40;1.30;;;;;;;36.97;20.42;98559.75;5067008;28;20041;-82
2021/08/21 11:04:55;;;;;;;1.40;1.02;;;;;;;37.59;20.60;98553.00;5060395;28;20378;-82
2021/08/21 11:07:30;;;;;;;1.33;0.98;;;;;;;36.81;22.55;98554.69;5054814;28;20083;-82
2021/08/21 11:10:18;;;;;;;1.83;1.73;;;;;;;34.48;24.25;98547.00;5068744;28;20041;-82
2021/08/21 11:12:50;;;;;;;2.38;2.17;;;;;;;32.55;28.14;98555.25;5061024;28;20033;-81
2021/08/21 11:15:19;;;;;;;3.25;2.95;;;;;;;32.32;27.84;98547.44;5058483;28;20485;-84
2021/08/21 11:17:45;;;;;;;2.47;2.28;;;;;;;32.70;27.23;98550.44;5055505;28;20047;-83
2021/08/21 11:20:28;;;;;;;3.00;2.55;;;;;;;34.94;24.87;98546.44;5054874;28;20033;-83
2021/08/21 11:23:06;;;;;;;2.03;1.85;;;;;;;34.85;23.60;98549.38;5055346;28;20041;-83
2021/08/21 11:25:40;;;;;;;2.00;1.80;;;;;;;36.06;23.11;98542.34;5063526;28;20028;-83
2021/08/21 11:28:20;;;;;;;1.77;1.67;;;;;;;36.92;21.00;98546.97;5055708;28;20059;-83
2021/08/21 11:31:06;;;;;;;1.63;1.40;;;;;;;37.56;20.39;98546.22;5066648;28;20496;-83
2021/08/21 11:33:34;;;;;;;1.48;1.30;;;;;;;37.88;19.95;98549.75;5062098;28;20052;-83
2021/08/21 11:36:01;;;;;;;1.40;1.30;;;;;;;37.72;21.00;98544.69;5061466;28;20033;-84
2021/08/21 11:38:29;;;;;;;1.20;1.10;;;;;;;38.22;20.39;98544.81;5054561;28;20040;-83